Time;durP1;ratioP1;P1;durP2;ratioP2;P2;SDS_P1;SDS_P2;PMS_P1;PMS_P2;Temp;Humidity;BMP_temperature;BMP_pressure;BME280_temperature;BME280_humidity;BME280_pressure;Samples;Min_cycle;Max_cycle;Signal;HPM_P1;HPM_P2
2021/06/18 00:02:16;;;;;;;14.07;9.48;;;;;;;;;;143743;574;45020;-58
2021/06/18 00:04:44;;;;;;;15.52;10.18;;;;;;;;;;143745;608;46020;-58
2021/06/18 00:07:11;;;;;;;17.33;12.05;;;;;;;;;;143740;564;47020;-58
2021/06/18 00:09:38;;;;;;;15.57;10.20;;;;;;;;;;143741;614;47012;-58
2021/06/18 00:12:06;;;;;;;14.90;9.82;;;;;;;;;;143744;605;45914;-59
2021/06/18 00:14:33;;;;;;;16.85;10.77;;;;;;;;;;143747;618;45021;-58
2021/06/18 00:17:00;;;;;;;15.15;11.10;;;;;;;;;;143741;635;47020;-58
2021/06/18 00:19:27;;;;;;;18.05;10.93;;;;;;;;;;143742;614;46032;-58
2021/06/18 00:21:54;;;;;;;13.43;9.90;;;;;;;;;;143742;630;45021;-58
2021/06/18 00:24:21;;;;;;;18.55;10.15;;;;;;;;;;143743;644;46020;-58
2021/06/18 00:26:48;;;;;;;19.27;10.93;;;;;;;;;;143741;589;47022;-58
2021/06/18 00:29:15;;;;;;;14.60;10.82;;;;;;;;;;143740;566;47012;-58
2021/06/18 00:31:42;;;;;;;16.17;11.30;;;;;;;;;;143742;586;45020;-58
2021/06/18 00:34:09;;;;;;;13.75;9.48;;;;;;;;;;143743;577;46021;-58
2021/06/18 00:36:36;;;;;;;12.37;9.25;;;;;;;;;;143742;607;47020;-59
2021/06/18 00:39:04;;;;;;;15.55;9.90;;;;;;;;;;143742;670;47012;-59
2021/06/18 00:41:32;;;;;;;12.77;9.40;;;;;;;;;;143741;596;45914;-59
2021/06/18 00:43:59;;;;;;;16.75;9.45;;;;;;;;;;143746;572;45021;-59
2021/06/18 00:46:26;;;;;;;16.02;9.75;;;;;;;;;;143743;582;47020;-59
2021/06/18 00:48:53;;;;;;;14.60;9.75;;;;;;;;;;143742;629;47012;-59
2021/06/18 00:51:20;;;;;;;13.32;10.02;;;;;;;;;;143743;566;45914;-58
2021/06/18 00:53:47;;;;;;;17.17;11.95;;;;;;;;;;143746;588;45020;-59
2021/06/18 00:56:15;;;;;;;18.87;13.23;;;;;;;;;;143740;616;47021;-59
2021/06/18 00:58:42;;;;;;;15.35;11.75;;;;;;;;;;143741;598;47012;-59
2021/06/18 01:01:09;;;;;;;19.70;13.60;;;;;;;;;;143743;577;45914;-58
2021/06/18 01:03:36;;;;;;;19.90;12.40;;;;;;;;;;143746;620;46020;-58
2021/06/18 01:06:03;;;;;;;20.88;12.75;;;;;;;;;;143742;596;47023;-58
2021/06/18 01:08:42;;;;;;;18.17;11.25;;;;;;;;;;143742;651;46012;-58
2021/06/18 01:11:39;;;;;;;15.80;10.55;;;;;;;;;;143746;602;45021;-58
2021/06/18 01:14:52;;;;;;;15.32;10.93;;;;;;;;;;143746;609;45020;-58
2021/06/18 01:17:28;;;;;;;15.93;9.80;;;;;;;;;;143742;597;47022;-59
2021/06/18 01:20:52;;;;;;;13.75;9.38;;;;;;;;;;143741;580;47012;-59
2021/06/18 01:23:46;;;;;;;11.63;7.87;;;;;;;;;;143744;611;45022;-59
2021/06/18 01:27:01;;;;;;;10.80;8.02;;;;;;;;;;143745;601;46020;-59
2021/06/18 01:29:34;;;;;;;11.65;8.13;;;;;;;;;;143742;594;47020;-59
2021/06/18 01:32:05;;;;;;;14.70;8.63;;;;;;;;;;143742;587;46012;-59
2021/06/18 01:34:34;;;;;;;15.77;10.27;;;;;;;;;;143743;610;45021;-59
2021/06/18 01:37:11;;;;;;;19.42;12.30;;;;;;;;;;143745;582;45020;-58
2021/06/18 01:39:40;;;;;;;16.35;11.25;;;;;;;;;;143742;671;47022;-59
2021/06/18 01:42:10;;;;;;;13.80;10.50;;;;;;;;;;143741;573;46013;-59
2021/06/18 01:44:38;;;;;;;18.98;11.27;;;;;;;;;;143744;570;45020;-58
2021/06/18 01:47:08;;;;;;;23.08;11.82;;;;;;;;;;143742;585;46029;-59
2021/06/18 01:49:37;;;;;;;17.52;11.10;;;;;;;;;;143741;571;47023;-58
2021/06/18 01:52:06;;;;;;;25.30;15.02;;;;;;;;;;143739;573;47012;-59
2021/06/18 01:54:34;;;;;;;21.08;14.65;;;;;;;;;;143741;625;45020;-59
2021/06/18 01:57:02;;;;;;;22.40;14.80;;;;;;;;;;143746;597;46021;-59
2021/06/18 01:59:34;;;;;;;22.50;13.23;;;;;;;;;;143742;583;47020;-59
2021/06/18 02:02:02;;;;;;;29.73;19.20;;;;;;;;;;143742;619;46012;-58
2021/06/18 02:04:29;;;;;;;24.77;16.87;;;;;;;;;;143744;572;45021;-58
2021/06/18 02:06:56;;;;;;;26.85;16.85;;;;;;;;;;143747;585;46020;-58
2021/06/18 02:09:26;;;;;;;31.00;18.62;;;;;;;;;;143740;569;47022;-58
2021/06/18 02:11:55;;;;;;;28.00;18.02;;;;;;;;;;143740;617;47012;-58
2021/06/18 02:14:26;;;;;;;29.37;17.92;;;;;;;;;;143743;606;45020;-59
2021/06/18 02:16:56;;;;;;;24.63;16.58;;;;;;;;;;143746;569;46020;-59
2021/06/18 02:19:24;;;;;;;26.92;15.82;;;;;;;;;;143739;572;47022;-59
2021/06/18 02:21:53;;;;;;;21.33;14.52;;;;;;;;;;143739;580;47012;-59
2021/06/18 02:24:29;;;;;;;24.77;14.15;;;;;;;;;;143741;611;46020;-59
2021/06/18 02:26:56;;;;;;;28.20;17.52;;;;;;;;;;143746;577;45021;-59
2021/06/18 02:29:23;;;;;;;22.37;15.75;;;;;;;;;;143741;569;47020;-58
2021/06/18 02:31:52;;;;;;;31.27;18.87;;;;;;;;;;143741;582;47012;-58
2021/06/18 02:34:19;;;;;;;27.45;17.02;;;;;;;;;;143741;641;46914;-59
2021/06/18 02:36:46;;;;;;;25.40;17.30;;;;;;;;;;143742;599;46020;-58
2021/06/18 02:39:14;;;;;;;24.48;16.02;;;;;;;;;;143739;569;47022;-58
2021/06/18 02:41:42;;;;;;;23.00;16.00;;;;;;;;;;143733;589;47021;-58
2021/06/18 02:44:10;;;;;;;28.23;17.48;;;;;;;;;;143741;571;45020;-59
2021/06/18 02:47:05;;;;;;;32.85;19.23;;;;;;;;;;143745;578;45020;-59
2021/06/18 02:50:06;;;;;;;36.47;22.98;;;;;;;;;;143740;598;47021;-59
2021/06/18 02:53:10;;;;;;;43.28;27.17;;;;;;;;;;143740;645;46034;-59
2021/06/18 02:56:12;;;;;;;41.58;26.35;;;;;;;;;;143742;590;45022;-59
2021/06/18 02:59:22;;;;;;;54.20;29.02;;;;;;;;;;143745;594;45020;-59
2021/06/18 03:01:51;;;;;;;42.15;26.02;;;;;;;;;;143740;580;47022;-58
2021/06/18 03:04:25;;;;;;;39.42;23.55;;;;;;;;;;143741;638;46032;-58
2021/06/18 03:07:03;;;;;;;37.13;22.55;;;;;;;;;;143741;627;45912;-59
2021/06/18 03:09:36;;;;;;;29.80;19.83;;;;;;;;;;143744;584;46020;-59
2021/06/18 03:12:08;;;;;;;30.52;19.52;;;;;;;;;;143739;627;47023;-59
2021/06/18 03:14:37;;;;;;;34.08;19.85;;;;;;;;;;143740;612;46033;-59
2021/06/18 03:17:09;;;;;;;28.73;19.25;;;;;;;;;;143739;563;45912;-59
2021/06/18 03:19:45;;;;;;;29.17;20.08;;;;;;;;;;143743;572;45021;-59
2021/06/18 03:22:15;;;;;;;29.23;18.05;;;;;;;;;;143740;644;47020;-58
2021/06/18 03:24:45;;;;;;;30.05;19.98;;;;;;;;;;143740;624;47012;-59
2021/06/18 03:27:14;;;;;;;26.48;18.87;;;;;;;;;;143741;634;45021;-59
2021/06/18 03:29:41;;;;;;;28.98;17.62;;;;;;;;;;143744;569;45020;-59
2021/06/18 03:32:10;;;;;;;27.60;17.02;;;;;;;;;;143740;583;47020;-59
2021/06/18 03:34:38;;;;;;;22.92;16.58;;;;;;;;;;143741;596;46032;-59
2021/06/18 03:37:06;;;;;;;25.00;16.65;;;;;;;;;;143741;599;45020;-59
2021/06/18 03:39:33;;;;;;;24.80;16.00;;;;;;;;;;143744;566;45021;-59
2021/06/18 03:42:01;;;;;;;26.40;17.98;;;;;;;;;;143738;618;47021;-58
2021/06/18 03:44:28;;;;;;;29.52;17.98;;;;;;;;;;143740;593;47020;-58
2021/06/18 03:46:57;;;;;;;32.63;19.25;;;;;;;;;;143741;607;45021;-58
2021/06/18 03:49:29;;;;;;;24.80;17.80;;;;;;;;;;143744;574;45021;-58
2021/06/18 03:51:57;;;;;;;33.00;20.17;;;;;;;;;;143740;619;47020;-58
2021/06/18 03:54:24;;;;;;;25.58;18.17;;;;;;;;;;143741;592;46021;-58
2021/06/18 03:56:52;;;;;;;31.35;19.67;;;;;;;;;;143739;564;45913;-58
2021/06/18 03:59:21;;;;;;;26.02;19.33;;;;;;;;;;143744;577;45020;-58
2021/06/18 04:01:56;;;;;;;29.80;19.55;;;;;;;;;;143740;565;47021;-59
2021/06/18 04:04:26;;;;;;;29.85;19.70;;;;;;;;;;143741;576;46033;-59
2021/06/18 04:06:54;;;;;;;27.08;19.25;;;;;;;;;;143741;626;45020;-59
2021/06/18 04:09:21;;;;;;;31.35;19.98;;;;;;;;;;143744;585;46020;-59
2021/06/18 04:11:48;;;;;;;30.48;19.98;;;;;;;;;;143740;597;47020;-59
2021/06/18 04:14:16;;;;;;;26.20;17.48;;;;;;;;;;143740;613;46012;-59
2021/06/18 04:16:43;;;;;;;32.03;18.02;;;;;;;;;;143741;566;45020;-59
2021/06/18 04:19:13;;;;;;;29.50;19.75;;;;;;;;;;143744;579;45021;-59
2021/06/18 04:21:44;;;;;;;29.55;19.98;;;;;;;;;;143740;644;47020;-59
2021/06/18 04:24:15;;;;;;;25.12;21.08;;;;;;;;;;143740;574;46012;-59
2021/06/18 04:26:43;;;;;;;28.38;22.08;;;;;;;;;;143742;579;45021;-59
2021/06/18 04:29:11;;;;;;;35.85;23.87;;;;;;;;;;143744;581;45020;-59
2021/06/18 04:31:38;;;;;;;32.75;21.12;;;;;;;;;;143738;643;47021;-58
2021/06/18 04:34:06;;;;;;;18.98;15.07;;;;;;;;;;143740;588;46012;-58
2021/06/18 04:36:33;;;;;;;24.92;15.13;;;;;;;;;;143743;569;45020;-58
2021/06/18 04:39:00;;;;;;;21.23;15.32;;;;;;;;;;143743;566;45021;-58
2021/06/18 04:41:28;;;;;;;25.42;15.27;;;;;;;;;;143740;628;47023;-59
2021/06/18 04:43:55;;;;;;;23.20;16.10;;;;;;;;;;143740;618;47012;-59
2021/06/18 04:46:22;;;;;;;29.17;15.63;;;;;;;;;;143740;840;46022;-59
2021/06/18 04:48:49;;;;;;;33.85;14.77;;;;;;;;;;143744;624;45019;-59
2021/06/18 04:51:20;;;;;;;18.10;12.77;;;;;;;;;;143739;585;47020;-59
2021/06/18 04:53:47;;;;;;;29.40;14.02;;;;;;;;;;143740;733;46013;-59
2021/06/18 04:56:14;;;;;;;27.42;13.77;;;;;;;;;;143740;614;45021;-59
2021/06/18 04:58:41;;;;;;;20.48;12.13;;;;;;;;;;143743;597;46020;-59
2021/06/18 05:01:08;;;;;;;19.52;14.30;;;;;;;;;;143740;571;47020;-59
2021/06/18 05:03:35;;;;;;;19.37;12.70;;;;;;;;;;143739;608;46028;-59
2021/06/18 05:06:03;;;;;;;17.85;12.18;;;;;;;;;;143742;572;45020;-59
2021/06/18 05:08:30;;;;;;;20.62;13.38;;;;;;;;;;143745;592;45020;-60
2021/06/18 05:10:57;;;;;;;15.52;13.70;;;;;;;;;;143740;611;47021;-60
2021/06/18 05:13:24;;;;;;;18.12;12.48;;;;;;;;;;143741;597;46023;-60
2021/06/18 05:15:52;;;;;;;16.67;12.45;;;;;;;;;;143735;571;45912;-61
2021/06/18 05:18:19;;;;;;;15.30;11.43;;;;;;;;;;143744;593;45021;-60
2021/06/18 05:20:46;;;;;;;19.20;10.50;;;;;;;;;;143739;578;47022;-60
2021/06/18 05:23:13;;;;;;;17.62;10.55;;;;;;;;;;143740;576;46012;-61
2021/06/18 05:25:40;;;;;;;18.67;12.10;;;;;;;;;;143741;569;45913;-61
2021/06/18 05:28:07;;;;;;;19.15;13.10;;;;;;;;;;143744;580;46020;-61
2021/06/18 05:30:34;;;;;;;20.42;14.45;;;;;;;;;;143739;609;47020;-61
2021/06/18 05:33:01;;;;;;;23.48;15.07;;;;;;;;;;143737;605;47916;-61
2021/06/18 05:35:28;;;;;;;27.42;19.52;;;;;;;;;;143741;576;45020;-61
2021/06/18 05:37:55;;;;;;;34.05;18.50;;;;;;;;;;143744;662;46020;-61
2021/06/18 05:40:22;;;;;;;19.42;14.48;;;;;;;;;;143739;611;47021;-60
2021/06/18 05:42:50;;;;;;;20.40;14.50;;;;;;;;;;143738;668;47012;-61
2021/06/18 05:45:18;;;;;;;15.70;11.20;;;;;;;;;;143741;580;45020;-61
2021/06/18 05:47:45;;;;;;;17.98;10.73;;;;;;;;;;143744;577;45021;-61
2021/06/18 05:50:12;;;;;;;12.95;8.70;;;;;;;;;;143739;566;47023;-61
2021/06/18 05:52:39;;;;;;;14.10;9.13;;;;;;;;;;143739;644;46012;-60
2021/06/18 05:55:07;;;;;;;16.35;11.35;;;;;;;;;;143740;624;46020;-60
2021/06/18 05:57:35;;;;;;;14.63;7.70;;;;;;;;;;143744;609;46020;-60
2021/06/18 06:00:05;;;;;;;19.05;8.93;;;;;;;;;;143738;575;47020;-61
2021/06/18 06:02:32;;;;;;;11.75;7.75;;;;;;;;;;143739;570;46013;-61
2021/06/18 06:04:59;;;;;;;12.27;8.27;;;;;;;;;;143740;575;46020;-61
2021/06/18 06:07:26;;;;;;;12.27;7.50;;;;;;;;;;143744;659;46020;-61
2021/06/18 06:09:53;;;;;;;12.18;7.12;;;;;;;;;;143740;610;47021;-61
2021/06/18 06:12:20;;;;;;;8.02;6.22;;;;;;;;;;143739;588;47012;-61
2021/06/18 06:14:47;;;;;;;7.93;6.60;;;;;;;;;;143743;580;45020;-61
2021/06/18 06:17:14;;;;;;;10.15;6.53;;;;;;;;;;143744;585;45021;-60
2021/06/18 06:19:41;;;;;;;10.40;6.47;;;;;;;;;;143738;614;47022;-61
2021/06/18 06:22:08;;;;;;;6.97;5.07;;;;;;;;;;143740;591;46026;-61
2021/06/18 06:24:36;;;;;;;8.60;6.05;;;;;;;;;;143741;666;45021;-61
2021/06/18 06:27:03;;;;;;;7.78;5.03;;;;;;;;;;143744;565;46020;-61
2021/06/18 06:29:30;;;;;;;7.68;4.60;;;;;;;;;;143739;592;47020;-60
2021/06/18 06:31:57;;;;;;;10.32;5.80;;;;;;;;;;143740;580;47012;-59
2021/06/18 06:34:25;;;;;;;8.40;6.10;;;;;;;;;;143741;596;45912;-59
2021/06/18 06:36:51;;;;;;;9.25;6.25;;;;;;;;;;143743;637;45028;-61
2021/06/18 06:39:18;;;;;;;10.02;5.22;;;;;;;;;;143740;591;47021;-61
2021/06/18 06:41:46;;;;;;;8.10;5.20;;;;;;;;;;143740;564;46012;-61
2021/06/18 06:44:13;;;;;;;7.10;4.72;;;;;;;;;;143742;666;45020;-61
2021/06/18 06:46:40;;;;;;;8.55;4.55;;;;;;;;;;143744;578;46020;-62
2021/06/18 06:49:07;;;;;;;6.62;4.07;;;;;;;;;;143740;607;47020;-61
2021/06/18 06:51:34;;;;;;;8.65;5.03;;;;;;;;;;143740;573;46012;-61
2021/06/18 06:54:01;;;;;;;9.48;4.43;;;;;;;;;;143741;575;47021;-61
2021/06/18 06:56:28;;;;;;;10.50;4.28;;;;;;;;;;143743;589;46020;-61
2021/06/18 06:58:55;;;;;;;8.95;5.10;;;;;;;;;;143739;588;47020;-60
2021/06/18 07:01:23;;;;;;;5.47;4.30;;;;;;;;;;143740;601;46012;-61
2021/06/18 07:03:50;;;;;;;9.50;5.43;;;;;;;;;;143742;629;45912;-61
2021/06/18 07:06:17;;;;;;;5.35;4.25;;;;;;;;;;143743;588;46020;-60
2021/06/18 07:08:44;;;;;;;6.53;5.12;;;;;;;;;;143742;642;46022;-61
2021/06/18 07:11:11;;;;;;;7.70;5.15;;;;;;;;;;143737;664;47012;-61
2021/06/18 07:13:38;;;;;;;12.50;5.47;;;;;;;;;;143741;585;45020;-59
2021/06/18 07:16:05;;;;;;;6.55;4.37;;;;;;;;;;143744;601;46020;-59
2021/06/18 07:18:35;;;;;;;7.78;4.40;;;;;;;;;;143739;585;47020;-58
2021/06/18 07:21:02;;;;;;;8.07;4.78;;;;;;;;;;143738;600;47012;-59
2021/06/18 07:23:29;;;;;;;9.05;5.05;;;;;;;;;;143740;673;45912;-59
2021/06/18 07:25:56;;;;;;;6.40;5.22;;;;;;;;;;143744;586;45021;-59
2021/06/18 07:28:24;;;;;;;12.48;4.28;;;;;;;;;;143739;661;47022;-60
2021/06/18 07:30:51;;;;;;;7.30;4.47;;;;;;;;;;143738;600;47012;-59
2021/06/18 07:33:18;;;;;;;11.07;5.20;;;;;;;;;;143741;564;45021;-59
2021/06/18 07:35:45;;;;;;;11.75;5.32;;;;;;;;;;143744;600;45020;-58
2021/06/18 07:38:12;;;;;;;11.70;5.25;;;;;;;;;;143739;664;47021;-59
2021/06/18 07:40:39;;;;;;;9.70;5.20;;;;;;;;;;143737;724;47012;-58
2021/06/18 07:43:06;;;;;;;7.28;4.97;;;;;;;;;;143742;605;45020;-58
2021/06/18 07:45:33;;;;;;;7.43;4.93;;;;;;;;;;143744;565;45021;-59
2021/06/18 07:48:02;;;;;;;8.60;5.40;;;;;;;;;;143733;754;47020;-59
2021/06/18 07:50:30;;;;;;;11.25;5.05;;;;;;;;;;143737;585;47012;-59
2021/06/18 07:52:57;;;;;;;13.13;4.55;;;;;;;;;;143740;588;45021;-58
2021/06/18 07:55:24;;;;;;;6.00;4.30;;;;;;;;;;143743;572;46020;-57
2021/06/18 07:57:52;;;;;;;6.40;4.55;;;;;;;;;;143738;564;47020;-58
2021/06/18 08:00:20;;;;;;;11.02;4.70;;;;;;;;;;143740;605;46032;-58
2021/06/18 08:02:47;;;;;;;13.82;8.15;;;;;;;;;;143741;589;45021;-57
2021/06/18 08:05:15;;;;;;;9.05;5.03;;;;;;;;;;143742;626;46020;-58
2021/06/18 08:07:44;;;;;;;6.82;4.20;;;;;;;;;;143735;586;50012;-57
2021/06/18 08:10:13;;;;;;;12.68;5.07;;;;;;;;;;143737;615;47012;-58
2021/06/18 08:12:41;;;;;;;10.35;5.05;;;;;;;;;;143738;572;46020;-58
2021/06/18 08:15:08;;;;;;;6.25;4.35;;;;;;;;;;143745;593;45020;-58
2021/06/18 08:17:36;;;;;;;8.52;4.50;;;;;;;;;;143738;595;47021;-58
2021/06/18 08:20:05;;;;;;;8.65;4.93;;;;;;;;;;143737;566;47012;-58
2021/06/18 08:22:32;;;;;;;7.20;4.37;;;;;;;;;;143743;600;45912;-59
2021/06/18 08:25:02;;;;;;;6.75;4.53;;;;;;;;;;143742;615;46021;-58
2021/06/18 08:27:29;;;;;;;7.07;4.10;;;;;;;;;;143740;595;48020;-58
2021/06/18 08:29:56;;;;;;;4.57;3.83;;;;;;;;;;143734;585;48012;-58
2021/06/18 08:32:24;;;;;;;5.22;3.60;;;;;;;;;;143737;607;45021;-58
2021/06/18 08:34:50;;;;;;;7.30;3.70;;;;;;;;;;143737;621;47012;-58
2021/06/18 08:37:17;;;;;;;6.68;4.18;;;;;;;;;;143736;667;47022;-58
2021/06/18 08:39:44;;;;;;;10.15;4.95;;;;;;;;;;143739;588;47012;-59
2021/06/18 08:42:11;;;;;;;7.97;4.25;;;;;;;;;;143743;571;45020;-58
2021/06/18 08:44:38;;;;;;;9.40;3.78;;;;;;;;;;143739;617;46012;-58
2021/06/18 08:47:05;;;;;;;7.25;4.90;;;;;;;;;;143740;607;47021;-58
2021/06/18 08:49:32;;;;;;;8.27;3.83;;;;;;;;;;143738;587;47012;-59
2021/06/18 08:52:00;;;;;;;9.82;4.00;;;;;;;;;;143743;637;45020;-59
2021/06/18 08:54:41;;;;;;;8.00;3.70;;;;;;;;;;143740;627;46021;-59
2021/06/18 08:57:13;;;;;;;10.15;3.92;;;;;;;;;;143740;565;47022;-59
2021/06/18 08:59:41;;;;;;;6.70;4.53;;;;;;;;;;143737;656;46013;-59
2021/06/18 09:02:09;;;;;;;10.95;5.72;;;;;;;;;;143743;610;45021;-59
2021/06/18 09:05:04;;;;;;;6.12;3.67;;;;;;;;;;143745;607;46020;-59
2021/06/18 09:07:55;;;;;;;7.93;3.37;;;;;;;;;;143739;595;47022;-59
2021/06/18 09:10:40;;;;;;;7.40;3.37;;;;;;;;;;143740;589;47012;-59
2021/06/18 09:13:18;;;;;;;6.65;3.40;;;;;;;;;;143739;592;49014;-59
2021/06/18 09:15:52;;;;;;;5.03;3.28;;;;;;;;;;143746;579;46020;-59
2021/06/18 09:18:34;;;;;;;4.85;3.10;;;;;;;;;;143742;602;47020;-58
2021/06/18 09:21:24;;;;;;;5.25;2.60;;;;;;;;;;143733;563;46020;-59
2021/06/18 09:23:53;;;;;;;9.15;3.42;;;;;;;;;;143742;565;45910;-59
2021/06/18 09:26:24;;;;;;;6.05;3.45;;;;;;;;;;143744;566;45020;-58
2021/06/18 09:29:16;;;;;;;4.50;3.20;;;;;;;;;;143739;583;47020;-58
2021/06/18 09:31:51;;;;;;;9.15;3.80;;;;;;;;;;143737;653;47012;-58
2021/06/18 09:35:01;;;;;;;7.25;3.95;;;;;;;;;;143742;591;45020;-58
2021/06/18 09:37:36;;;;;;;9.52;4.00;;;;;;;;;;143744;592;46012;-59
2021/06/18 09:40:20;;;;;;;4.40;3.67;;;;;;;;;;143741;587;47020;-59
2021/06/18 09:43:01;;;;;;;9.85;5.25;;;;;;;;;;143739;586;47020;-58
2021/06/18 09:45:31;;;;;;;4.70;3.20;;;;;;;;;;143739;592;45912;-59
2021/06/18 09:48:15;;;;;;;5.62;4.43;;;;;;;;;;143742;655;46020;-59
2021/06/18 09:50:44;;;;;;;6.35;3.35;;;;;;;;;;143741;594;47022;-58
2021/06/18 09:53:16;;;;;;;10.45;3.95;;;;;;;;;;143740;606;46020;-58
2021/06/18 09:55:45;;;;;;;6.15;2.97;;;;;;;;;;143742;564;45021;-58
2021/06/18 09:58:13;;;;;;;7.53;3.05;;;;;;;;;;143742;573;46014;-57
2021/06/18 10:00:40;;;;;;;8.05;3.12;;;;;;;;;;143739;581;47021;-57
2021/06/18 10:03:11;;;;;;;6.22;3.62;;;;;;;;;;143737;632;47012;-57
2021/06/18 10:05:39;;;;;;;2.72;2.37;;;;;;;;;;143740;580;45912;-57
2021/06/18 10:08:07;;;;;;;4.87;3.12;;;;;;;;;;143745;594;45021;-58
2021/06/18 10:10:35;;;;;;;4.97;3.22;;;;;;;;;;143740;574;47020;-57
2021/06/18 10:13:03;;;;;;;7.95;3.53;;;;;;;;;;143738;572;47012;-57
2021/06/18 10:15:31;;;;;;;3.10;2.75;;;;;;;;;;143743;571;45021;-57
2021/06/18 10:17:59;;;;;;;4.20;2.83;;;;;;;;;;143746;621;46020;-57
2021/06/18 10:20:29;;;;;;;6.12;3.25;;;;;;;;;;143741;574;47020;-57
2021/06/18 10:23:13;;;;;;;5.60;2.65;;;;;;;;;;143742;585;46032;-57
2021/06/18 10:25:58;;;;;;;6.35;2.58;;;;;;;;;;143744;571;45020;-59
2021/06/18 10:28:34;;;;;;;4.18;2.70;;;;;;;;;;143745;602;46020;-59
2021/06/18 10:31:02;;;;;;;4.57;3.22;;;;;;;;;;143743;564;46022;-58
2021/06/18 10:33:40;;;;;;;4.45;2.62;;;;;;;;;;143742;609;46034;-57
2021/06/18 10:36:28;;;;;;;4.35;2.62;;;;;;;;;;143740;566;46020;-57
2021/06/18 10:39:07;;;;;;;4.55;3.50;;;;;;;;;;143746;570;46021;-57
2021/06/18 10:41:42;;;;;;;16.35;4.87;;;;;;;;;;143742;619;47022;-56
2021/06/18 10:44:09;;;;;;;5.50;3.92;;;;;;;;;;143735;564;50014;-58
2021/06/18 10:46:37;;;;;;;7.47;3.78;;;;;;;;;;143744;601;45021;-57
2021/06/18 10:49:06;;;;;;;7.72;3.85;;;;;;;;;;143745;592;46020;-57
2021/06/18 10:51:56;;;;;;;9.88;5.10;;;;;;;;;;143742;589;47022;-56
2021/06/18 10:54:48;;;;;;;7.30;3.97;;;;;;;;;;143740;573;47012;-56
2021/06/18 10:57:16;;;;;;;7.95;4.40;;;;;;;;;;143744;588;45914;-58
2021/06/18 10:59:51;;;;;;;7.53;4.53;;;;;;;;;;143744;587;48021;-57
2021/06/18 11:02:39;;;;;;;7.85;4.10;;;;;;;;;;143742;608;47020;-57
2021/06/18 11:05:33;;;;;;;11.12;4.43;;;;;;;;;;143741;570;46020;-57
2021/06/18 11:08:20;;;;;;;7.25;4.20;;;;;;;;;;143744;579;45022;-58
2021/06/18 11:10:48;;;;;;;6.60;3.80;;;;;;;;;;143742;571;50020;-58
2021/06/18 11:13:18;;;;;;;6.40;3.53;;;;;;;;;;143741;631;47022;-57
2021/06/18 11:15:46;;;;;;;4.00;3.58;;;;;;;;;;143740;576;47034;-58
2021/06/18 11:18:32;;;;;;;5.22;3.42;;;;;;;;;;143746;571;45020;-58
2021/06/18 11:21:01;;;;;;;7.90;4.22;;;;;;;;;;143747;578;46020;-59
2021/06/18 11:23:34;;;;;;;6.32;4.37;;;;;;;;;;143740;575;47021;-58
2021/06/18 11:26:13;;;;;;;8.32;3.25;;;;;;;;;;143742;589;46012;-60
2021/06/18 11:28:48;;;;;;;7.43;4.20;;;;;;;;;;143743;661;45020;-59
2021/06/18 11:31:41;;;;;;;19.33;4.43;;;;;;;;;;143747;574;45033;-59
2021/06/18 11:34:25;;;;;;;9.57;4.30;;;;;;;;;;143741;578;47020;-59
2021/06/18 11:36:53;;;;;;;5.90;3.72;;;;;;;;;;143745;645;46012;-59
2021/06/18 11:39:21;;;;;;;6.93;3.90;;;;;;;;;;143742;585;45914;-59
2021/06/18 11:41:55;;;;;;;10.90;4.05;;;;;;;;;;143744;576;46020;-59
2021/06/18 11:44:24;;;;;;;10.48;4.35;;;;;;;;;;143739;683;47022;-59
2021/06/18 11:46:53;;;;;;;9.50;4.00;;;;;;;;;;143742;599;47012;-60
2021/06/18 11:49:22;;;;;;;4.40;3.50;;;;;;;;;;143745;659;45020;-60
2021/06/18 11:51:52;;;;;;;9.02;4.30;;;;;;;;;;143746;646;46020;-59
2021/06/18 11:54:39;;;;;;;12.30;4.03;;;;;;;;;;143737;616;49020;-60
2021/06/18 11:57:12;;;;;;;5.15;3.70;;;;;;;;;;143740;599;47012;-60
2021/06/18 11:59:41;;;;;;;6.68;4.12;;;;;;;;;;143745;594;45021;-59
2021/06/18 12:02:18;;;;;;;9.40;4.45;;;;;;;;;;143745;644;45020;-59
2021/06/18 12:04:46;;;;;;;7.40;3.47;;;;;;;;;;143743;598;47020;-59
2021/06/18 12:07:13;;;;;;;5.43;3.80;;;;;;;;;;143741;604;47013;-59
2021/06/18 12:09:42;;;;;;;7.05;3.90;;;;;;;;;;143741;632;47018;-59
2021/06/18 12:12:09;;;;;;;7.65;4.05;;;;;;;;;;143745;589;46012;-59
2021/06/18 12:14:43;;;;;;;10.90;4.50;;;;;;;;;;143742;566;47021;-60
2021/06/18 12:17:10;;;;;;;6.85;4.05;;;;;;;;;;143740;618;47012;-60
2021/06/18 12:19:44;;;;;;;12.32;4.75;;;;;;;;;;143744;569;45914;-61
2021/06/18 12:22:16;;;;;;;8.27;4.37;;;;;;;;;;143746;574;45021;-59
2021/06/18 12:24:46;;;;;;;12.98;4.10;;;;;;;;;;143741;592;47020;-60
2021/06/18 12:27:15;;;;;;;8.98;3.85;;;;;;;;;;143743;603;46012;-60
2021/06/18 12:29:53;;;;;;;8.07;3.65;;;;;;;;;;143743;624;45021;-60
2021/06/18 12:32:21;;;;;;;6.95;3.92;;;;;;;;;;143747;569;46020;-59
2021/06/18 12:34:53;;;;;;;7.97;4.18;;;;;;;;;;143742;569;47020;-59
2021/06/18 12:37:26;;;;;;;10.75;4.90;;;;;;;;;;143742;605;46013;-60
2021/06/18 12:40:29;;;;;;;10.52;4.32;;;;;;;;;;143744;565;45914;-59
2021/06/18 12:42:58;;;;;;;7.20;4.30;;;;;;;;;;143746;604;45022;-59
2021/06/18 12:45:30;;;;;;;5.90;3.80;;;;;;;;;;143743;572;47023;-58
2021/06/18 12:48:14;;;;;;;7.53;3.80;;;;;;;;;;143740;565;47012;-59
2021/06/18 12:50:44;;;;;;;5.78;3.60;;;;;;;;;;143743;614;45912;-59
2021/06/18 12:53:16;;;;;;;5.05;3.80;;;;;;;;;;143743;624;46012;-60
2021/06/18 12:55:51;;;;;;;5.50;3.58;;;;;;;;;;143740;606;47020;-59
2021/06/18 12:58:34;;;;;;;4.18;3.60;;;;;;;;;;143741;564;47013;-59
2021/06/18 13:01:05;;;;;;;8.32;3.87;;;;;;;;;;143742;597;45023;-59
2021/06/18 13:03:40;;;;;;;5.07;3.28;;;;;;;;;;143745;577;45020;-59
2021/06/18 13:06:12;;;;;;;4.87;3.45;;;;;;;;;;143741;590;47021;-59
2021/06/18 13:08:58;;;;;;;9.05;3.65;;;;;;;;;;143740;566;47012;-59
2021/06/18 13:11:34;;;;;;;9.27;4.22;;;;;;;;;;143742;635;45912;-59
2021/06/18 13:14:14;;;;;;;8.98;4.00;;;;;;;;;;143746;605;45021;-60
2021/06/18 13:16:47;;;;;;;6.40;3.53;;;;;;;;;;143743;589;47022;-59
2021/06/18 13:19:15;;;;;;;7.78;3.90;;;;;;;;;;143740;589;47012;-59
2021/06/18 13:21:55;;;;;;;8.00;4.30;;;;;;;;;;143743;566;45021;-60
2021/06/18 13:24:30;;;;;;;7.43;4.50;;;;;;;;;;143747;600;46020;-59
2021/06/18 13:27:12;;;;;;;12.18;5.05;;;;;;;;;;143743;643;46022;-59
2021/06/18 13:29:54;;;;;;;8.35;5.15;;;;;;;;;;143742;581;46013;-60
2021/06/18 13:32:22;;;;;;;7.40;4.57;;;;;;;;;;143745;607;45020;-59
2021/06/18 13:34:55;;;;;;;6.87;3.90;;;;;;;;;;143745;594;45020;-59
2021/06/18 13:37:24;;;;;;;8.73;4.07;;;;;;;;;;143741;576;47021;-59
2021/06/18 13:40:49;;;;;;;7.45;4.20;;;;;;;;;;143741;619;47012;-59
2021/06/18 13:43:16;;;;;;;12.43;4.95;;;;;;;;;;143744;606;45033;-59
2021/06/18 13:45:43;;;;;;;10.23;5.10;;;;;;;;;;143746;582;45021;-62
2021/06/18 13:48:10;;;;;;;8.13;5.10;;;;;;;;;;143743;585;47020;-61
2021/06/18 13:50:48;;;;;;;5.62;4.50;;;;;;;;;;143742;600;47012;-59
2021/06/18 13:53:15;;;;;;;12.88;4.47;;;;;;;;;;143744;580;45021;-60
2021/06/18 13:55:43;;;;;;;8.27;4.53;;;;;;;;;;143745;587;46012;-60
2021/06/18 13:58:10;;;;;;;6.00;4.28;;;;;;;;;;143741;731;47022;-59
2021/06/18 14:00:37;;;;;;;11.40;4.82;;;;;;;;;;143742;576;46023;-60
2021/06/18 14:03:04;;;;;;;6.25;4.12;;;;;;;;;;143742;587;45020;-59
2021/06/18 14:05:30;;;;;;;5.30;3.90;;;;;;;;;;143745;565;46012;-59
2021/06/18 14:07:58;;;;;;;5.15;3.85;;;;;;;;;;143740;595;47020;-60
2021/06/18 14:10:25;;;;;;;5.62;4.32;;;;;;;;;;143740;633;47012;-59
2021/06/18 14:12:52;;;;;;;6.37;4.40;;;;;;;;;;143742;591;45914;-59
2021/06/18 14:15:27;;;;;;;4.75;3.78;;;;;;;;;;143745;598;47021;-59
2021/06/18 14:17:54;;;;;;;6.50;4.25;;;;;;;;;;143741;592;47022;-58
2021/06/18 14:20:21;;;;;;;7.32;4.00;;;;;;;;;;143740;592;47012;-60
2021/06/18 14:22:48;;;;;;;7.87;4.82;;;;;;;;;;143744;593;45915;-59
2021/06/18 14:25:15;;;;;;;9.48;4.80;;;;;;;;;;143747;573;46020;-59
2021/06/18 14:27:43;;;;;;;4.80;4.05;;;;;;;;;;143743;583;47021;-59
2021/06/18 14:30:11;;;;;;;5.45;4.00;;;;;;;;;;143741;581;47012;-59
2021/06/18 14:32:38;;;;;;;8.75;4.05;;;;;;;;;;143741;604;46020;-59
2021/06/18 14:35:06;;;;;;;4.90;3.60;;;;;;;;;;143746;621;45021;-58
2021/06/18 14:37:34;;;;;;;5.15;4.00;;;;;;;;;;143742;684;47021;-58
2021/06/18 14:40:01;;;;;;;6.65;4.15;;;;;;;;;;143741;746;47012;-59
2021/06/18 14:42:28;;;;;;;5.57;4.32;;;;;;;;;;143744;586;45021;-59
2021/06/18 14:44:55;;;;;;;6.80;3.62;;;;;;;;;;143745;615;46012;-59
2021/06/18 14:47:22;;;;;;;6.90;4.45;;;;;;;;;;143742;604;47020;-59
2021/06/18 14:49:49;;;;;;;14.18;4.78;;;;;;;;;;143741;572;47012;-59
2021/06/18 14:52:16;;;;;;;9.05;4.25;;;;;;;;;;143743;601;45021;-59
2021/06/18 14:54:43;;;;;;;6.37;4.12;;;;;;;;;;143746;592;45020;-59
2021/06/18 14:57:10;;;;;;;9.75;4.35;;;;;;;;;;143742;579;47020;-58